Home > Products > Valid Products > MTR

000
SAUS46 KSGX 020353
MTRCZZ
METAR KCZZ 020352Z AUTO 03004KT 20/06 A2988 RMK AO1 SLP084 T02000061





000
SAUS46 KSGX 020352
MTRSAN
METAR KSAN 020351Z 20005KT 10SM SCT015 22/17 A2983 RMK AO2 SLP102
T02170167 $





000
SAUS46 KSGX 020253
MTRCZZ
METAR KCZZ 020252Z AUTO 00000KT 24/09 A2987 RMK AO1 SLP081 T02390089
53010





000
SAUS46 KSGX 020252
MTRSAN
METAR KSAN 020251Z 17005KT 10SM SCT015 22/17 A2982 RMK AO2 SLP098
T02170167 53005 $





000
SAUS46 KSGX 020153
MTRCZZ
METAR KCZZ 020152Z AUTO 21006KT 27/08 A2985 RMK AO1 SLP078 T02670083





000
SAUS46 KSGX 020152
MTRSAN
METAR KSAN 020151Z 19006KT 10SM FEW015 22/17 A2981 RMK AO2 SLP094
T02220167 $





000
SAUS46 KSGX 020053
MTRCZZ
METAR KCZZ 020052Z AUTO 24009KT 31/07 A2984 RMK AO1 SLP073 T03060067





000
SAUS46 KSGX 020052
MTRSAN
METAR KSAN 020051Z 20006KT 10SM FEW015 23/17 A2980 RMK AO2 SLP092
T02280167 $





000
SAUS46 KSGX 012353
MTRCZZ
METAR KCZZ 012352Z AUTO 23012KT 32/07 A2983 RMK AO1 SLP069 T03220067
10344 20311 56007





000
SAUS46 KSGX 012352
MTRSAN
METAR KSAN 012351Z 19007KT 10SM FEW015 23/17 A2981 RMK AO2 SLP093
T02330167 10239 20228 56009 $





000
SAUS46 KSGX 012253
MTRCZZ
METAR KCZZ 012252Z AUTO 24008G17KT 33/08 A2984 RMK AO1 SLP069
T03280078





000
SAUS46 KSGX 012252
MTRSAN
METAR KSAN 012251Z 21007KT 10SM FEW015 23/16 A2981 RMK AO2 SLP094
T02280161 $





000
SAUS46 KSGX 012153
MTRCZZ
METAR KCZZ 012152Z AUTO 25010G17KT 33/06 A2984 RMK AO1 SLP072
T03280056





000
SAUS46 KSGX 012152
MTRSAN
METAR KSAN 012151Z 21008KT 10SM FEW015 23/16 A2982 RMK AO2 SLP097
T02330161 $





000
SAUS46 KSGX 012053
MTRCZZ
METAR KCZZ 012052Z AUTO 24013G17KT 34/03 A2986 RMK AO1 SLP074
T03440033 58012





000
SAUS46 KSGX 012052
MTRSAN
METAR KSAN 012051Z 21008KT 10SM FEW015 23/16 A2983 RMK AO2 SLP102
T02330161 58009 $





000
SAUS46 KSGX 011953
MTRCZZ
METAR KCZZ 011952Z AUTO 21009G17KT 33/00 A2987 RMK AO1 SLP078
T03330000





000
SAUS46 KSGX 011953
MTRSAN
METAR KSAN 011951Z 21009KT 10SM FEW015 23/17 A2984 RMK AO2 SLP104
T02330167 $





000
SAUS46 KSGX 011853
MTRCZZ
METAR KCZZ 011852Z AUTO 18007KT 32/M02 A2988 RMK AO1 SLP084
T03221017





000
SAUS46 KSGX 011852
MTRSAN
METAR KSAN 011851Z 20008KT 10SM FEW015 23/17 A2986 RMK AO2 SLP109
T02330167 $





000
SAUS46 KSGX 011753
MTRCZZ
METAR KCZZ 011752Z AUTO 23011KT 32/M01 A2989 RMK AO1 SLP086
T03171011 10317 20100 58002





000
SAUS46 KSGX 011752
MTRSAN
METAR KSAN 011751Z 18008KT 10SM FEW015 23/17 A2986 RMK AO2 SLP111
T02280167 10228 20200 50004 $





000
SAUS46 KSGX 011653
MTRCZZ
METAR KCZZ 011652Z AUTO 23004KT 29/00 A2990 RMK AO1 SLP089 T02940000





000
SAUS46 KSGX 011652
MTRSAN
METAR KSAN 011651Z 18009KT 10SM SCT015 22/17 A2986 RMK AO2 SLP112
T02170167 $





000
SAUS46 KSGX 011647
MTRSAN
SPECI KSAN 011646Z 19008KT 10SM SCT015 22/17 A2986 RMK AO2 $





000
SAUS46 KSGX 011553
MTRCZZ
METAR KCZZ 011552Z AUTO 00000KT 26/05 A2990 RMK AO1 SLP089 T02610050





000
SAUS46 KSGX 011552
MTRSAN
METAR KSAN 011551Z 17006KT 9SM BKN014 21/17 A2986 RMK AO2 SLP110
T02060167 $





000
SAUS46 KSGX 011453
MTRCZZ
METAR KCZZ 011452Z AUTO 06003KT 19/05 A2990 RMK AO1 SLP092 T01890050
53004





000
SAUS46 KSGX 011452
MTRSAN
METAR KSAN 011451Z 17007KT 10SM OVC012 21/17 A2985 RMK AO2 SLP107
T02060167 53008 $





000
SAUS46 KSGX 011353
MTRCZZ
METAR KCZZ 011352Z AUTO 05005KT 12/03 A2990 RMK AO1 SLP095 T01220033





000
SAUS46 KSGX 011352
MTRSAN
METAR KSAN 011351Z 15006KT 9SM BKN012 21/17 A2983 RMK AO2 SLP102
T02060167 $





000
SAUS46 KSGX 011253
MTRCZZ
METAR KCZZ 011252Z AUTO 05003KT 11/03 A2989 RMK AO1 SLP090 T01060033





000
SAUS46 KSGX 011252
MTRSAN
METAR KSAN 011251Z 14007KT 10SM BKN012 21/17 A2983 RMK AO2 SLP100
T02060167 $





000
SAUS46 KSGX 011153
MTRCZZ
METAR KCZZ 011152Z AUTO 04006KT 12/04 A2989 RMK AO1 SLP087 T01220044
10167 20106 56005





000
SAUS46 KSGX 011152
MTRSAN
METAR KSAN 011151Z 16011KT 10SM BKN010 20/17 A2982 RMK AO2 SLP099
T02000167 10211 20200 55005 $





000
SAUS46 KSGX 011117
MTRSAN
SPECI KSAN 011116Z 18011KT 10SM BKN010 20/17 A2982 RMK AO2 $





000
SAUS46 KSGX 011053
MTRCZZ
METAR KCZZ 011052Z AUTO 05005KT 12/05 A2989 RMK AO1 SLP087 T01220050





000
SAUS46 KSGX 011052
MTRSAN
METAR KSAN 011051Z 16009KT 10SM BKN008 20/17 A2982 RMK AO2 SLP098
T02000172 $





000
SAUS46 KSGX 010953
MTRCZZ
METAR KCZZ 010952Z AUTO 06006KT 12/05 A2990 RMK AO1 SLP088 T01220050





000
SAUS46 KSGX 010952
MTRSAN
METAR KSAN 010951Z 18008KT 9SM BKN008 21/18 A2983 RMK AO2 SLP101
T02060178 $





000
SAUS46 KSGX 010853
MTRCZZ
METAR KCZZ 010852Z AUTO 05006KT 13/06 A2990 RMK AO1 SLP091 T01280056
58003





000
SAUS46 KSGX 010852
MTRSAN
METAR KSAN 010851Z 17008KT 9SM BKN008 21/18 A2984 RMK AO2 SLP104
T02060178 56003 $





000
SAUS46 KSGX 010753
MTRCZZ
METAR KCZZ 010752Z AUTO 06004KT 13/06 A2990 RMK AO1 SLP091 T01330061
403440111





000
SAUS46 KSGX 010752
MTRSAN
METAR KSAN 010751Z 17008KT 10SM BKN008 21/18 A2984 RMK AO2 SLP104
T02060178 402500194 $





000
SAUS46 KSGX 010653
MTRCZZ
METAR KCZZ 010652Z AUTO 05007KT 15/07 A2991 RMK AO1 SLP094 T01500067





000
SAUS46 KSGX 010652
MTRSAN
METAR KSAN 010651Z 16008KT 9SM BKN008 21/18 A2984 RMK AO2 SLP105
T02110183 $





000
SAUS46 KSGX 010553
MTRCZZ
METAR KCZZ 010552Z AUTO 03004KT 17/07 A2991 RMK AO1 SLP093 T01670067
10317 20161 51011





000
SAUS46 KSGX 010552
MTRSAN
METAR KSAN 010551Z 18007KT 9SM BKN008 21/18 A2985 RMK AO2 SLP106
T02110183 10233 20211 51008 $





000
SAUS46 KSGX 010507
MTRSAN
SPECI KSAN 010506Z 18005KT 9SM BKN008 21/18 A2984 RMK AO2 $





000
SAUS46 KSGX 010453
MTRCZZ
METAR KCZZ 010452Z AUTO 03004KT 17/06 A2990 RMK AO1 SLP091 T01720061





000
SAUS46 KSGX 010452
MTRSAN
METAR KSAN 010451Z 17006KT 10SM BKN010 21/18 A2984 RMK AO2 SLP103
T02110183 $





000
SAUS46 KSGX 010353
MTRCZZ
METAR KCZZ 010352Z AUTO 00000KT 21/08 A2989 RMK AO1 SLP087 T02110078





000
SAUS46 KSGX 010352
MTRSAN
METAR KSAN 010351Z 18005KT 10SM BKN010 22/18 A2983 RMK AO2 SLP102
T02170183 $





000
SAUS46 KSGX 010254
MTRCZZ
METAR KCZZ 010252Z AUTO 21008KT 24/08 A2988 RMK AO1 SLP083 T02440078
53006





000
SAUS46 KSGX 010252
MTRSAN
METAR KSAN 010251Z 16006KT 10SM BKN010 22/18 A2982 RMK AO2 SLP098
T02220183 53002 $





000
SAUS46 KSGX 010154
MTRCZZ
METAR KCZZ 010152Z AUTO 21009KT 27/07 A2986 RMK AO1 SLP081 T02720067





000
SAUS46 KSGX 010154
MTRCZZ
METAR KCZZ 010152Z AUTO 21009KT 27/07 A2986 RMK AO1 SLP081 T02720067





000
SAUS46 KSGX 010152
MTRSAN
METAR KSAN 010151Z 18006KT 9SM BKN012 23/19 A2981 RMK AO2 SLP095
T02280189 $





000
SAUS46 KSGX 010053
MTRCZZ
METAR KCZZ 010052Z AUTO 24012KT 30/06 A2986 RMK AO1 SLP078 T03000056





000
SAUS46 KSGX 010052
MTRSAN
METAR KSAN 010051Z 18007KT 10SM BKN012 BKN200 23/19 A2981 RMK AO2
SLP095 T02280189 $





000
SAUS46 KSGX 010025
MTRSAN
SPECI KSAN 010024Z 17007KT 10SM BKN012 BKN200 23/19 A2981 RMK AO2 $





000
SAUS46 KSGX 312353
MTRCZZ
METAR KCZZ 312352Z AUTO 23011KT 32/07 A2986 RMK AO1 SLP076 T03170067
10344 20317 55007





000
SAUS46 KSGX 312352
MTRSAN
METAR KSAN 312351Z 18008KT 10SM SCT010 SCT200 24/19 A2981 RMK AO2
SLP095 T02390189 10250 20228 56010 $





000
SAUS46 KSGX 312253
MTRCZZ
METAR KCZZ 312252Z AUTO 23016G20KT 33/07 A2985 RMK AO1 SLP074
T03330067





000
SAUS46 KSGX 312252
MTRSAN
METAR KSAN 312251Z 18008KT 10SM FEW010 25/18 A2981 RMK AO2 SLP095
T02500183 $





000
SAUS46 KSGX 312153
MTRCZZ
METAR KCZZ 312152Z AUTO 23015G23KT 34/04 A2986 RMK AO1 SLP075
T03390044





000
SAUS46 KSGX 312153
MTRSAN
METAR KSAN 312151Z 20007KT 10SM FEW010 24/18 A2983 RMK AO2 SLP100
T02390183 $





000
SAUS46 KSGX 312053
MTRCZZ
METAR KCZZ 312052Z AUTO 23012G19KT 34/04 A2988 RMK AO1 SLP080
T03390044 58008





000
SAUS46 KSGX 312052
MTRSAN
METAR KSAN 312051Z 22005KT 10SM FEW010 24/16 A2984 RMK AO2 SLP105
T02390161 58003 $





000
SAUS46 KSGX 311953
MTRCZZ
METAR KCZZ 311952Z AUTO 22015KT 33/02 A2988 RMK AO1 SLP083 T03330022





000
SAUS46 KSGX 311952
MTRSAN
METAR KSAN 311951Z 18008KT 8SM FEW012 23/18 A2985 RMK AO2 SLP109
T02330178 $





000
SAUS46 KSGX 311853
MTRCZZ
METAR KCZZ 311852Z AUTO 24010KT 33/01 A2990 RMK AO1 SLP088 T03280011





000
SAUS46 KSGX 311852
MTRSAN
METAR KSAN 311851Z 19009KT 6SM HZ FEW012 23/18 A2985 RMK AO2 SLP108
T02330178 $





000
SAUS46 KSGX 311753
MTRCZZ
METAR KCZZ 311752Z AUTO 21013G18KT 32/00 A2990 RMK AO1 SLP088
T03220000 10328 20111 58001





000
SAUS46 KSGX 311752
MTRSAN
METAR KSAN 311751Z 20006KT 6SM HZ FEW012 24/18 A2985 RMK AO2 SLP108
T02390178 10239 20194 50005 $





000
SAUS46 KSGX 311653
MTRCZZ
METAR KCZZ 311652Z AUTO 20006KT 31/M02 A2991 RMK AO1 SLP090
T03061022





000
SAUS46 KSGX 311652
MTRSAN
METAR KSAN 311651Z 00000KT 6SM HZ FEW012 23/18 A2986 RMK AO2 SLP110
T02330178 $





000
SAUS46 KSGX 311553
MTRCZZ
METAR KCZZ 311552Z AUTO 00000KT 28/01 A2991 RMK AO1 SLP090 T02780006





000
SAUS46 KSGX 311553
MTRSAN
METAR KSAN 311551Z 00000KT 6SM HZ FEW012 22/17 A2984 RMK AO2 SLP105
T02220172 $





000
SAUS46 KSGX 311506
MTRSAN
SPECI KSAN 311505Z 00000KT 5SM BR SCT010 22/18 A2984 RMK AO2 $





000
SAUS46 KSGX 311453
MTRCZZ
METAR KCZZ 311452Z AUTO 05004KT 21/03 A2991 RMK AO1 SLP091 T02060028
51010





000
SAUS46 KSGX 311452
MTRSAN
METAR KSAN 311451Z 00000KT 5SM BR BKN010 21/18 A2984 RMK AO2 SLP104
T02110178 53004 $





000
SAUS46 KSGX 311422
MTRSAN
SPECI KSAN 311421Z 08004KT 5SM BR BKN010 21/18 A2983 RMK AO2 $





000
SAUS46 KSGX 311353
MTRCZZ
METAR KCZZ 311352Z AUTO 05006KT 14/02 A2990 RMK AO1 SLP093 T01440022





000
SAUS46 KSGX 311352
MTRSAN
METAR KSAN 311351Z 00000KT 5SM BR OVC008 21/18 A2984 RMK AO2 SLP103
T02060178 $





000
SAUS46 KSGX 311314
MTRSAN
SPECI KSAN 311313Z 00000KT 6SM BR OVC008 20/18 A2983 RMK AO2 $





000
SAUS46 KSGX 311253
MTRCZZ
METAR KCZZ 311252Z AUTO 05006KT 13/03 A2989 RMK AO1 SLP085 T01330028





000
SAUS46 KSGX 311252
MTRSAN
METAR KSAN 311251Z 00000KT 6SM BR OVC006 20/18 A2982 RMK AO2 SLP099
T02000178 $





000
SAUS46 KSGX 311250
MTRSAN
SPECI KSAN 311248Z 00000KT 6SM BR OVC006 20/18 A2983 RMK AO2 $





000
SAUS46 KSGX 311153
MTRCZZ
METAR KCZZ 311152Z AUTO 03003KT 14/03 A2987 RMK AO1 SLP080 T01390028
10189 20122 57001





000
SAUS46 KSGX 311152
MTRSAN
METAR KSAN 311151Z 17008KT 5SM BR OVC004 20/18 A2981 RMK AO2 SLP095
T02000183 10222 20200 58001 $





000
SAUS46 KSGX 311130
MTRSAN
SPECI KSAN 311129Z 16006KT 6SM BR OVC004 20/18 A2981 RMK AO2 $





000
SAUS46 KSGX 311053
MTRSAN
METAR KSAN 311051Z 19004KT 7SM OVC006 20/18 A2982 RMK AO2 SLP097
T02000183 $





000
SAUS46 KSGX 311053
MTRCZZ
METAR KCZZ 311052Z AUTO 04005KT 14/04 A2987 RMK AO1 SLP080 T01390039





000
SAUS46 KSGX 311027
MTRSAN
SPECI KSAN 311026Z 16005KT 7SM OVC006 20/18 A2982 RMK AO2 $





000
SAUS46 KSGX 310953
MTRCZZ
METAR KCZZ 310952Z AUTO 05006KT 14/04 A2988 RMK AO1 SLP080 T01390044





000
SAUS46 KSGX 310952
MTRSAN
METAR KSAN 310951Z 18006KT 8SM OVC008 21/18 A2982 RMK AO2 SLP096
T02060178 $





000
SAUS46 KSGX 310928
MTRSAN
SPECI KSAN 310927Z 18006KT 8SM OVC006 20/18 A2982 RMK AO2 $





000
SAUS46 KSGX 310853
MTRCZZ
METAR KCZZ 310852Z AUTO 04006KT 16/04 A2988 RMK AO1 SLP079 T01560044
58000





000
SAUS46 KSGX 310852
MTRSAN
METAR KSAN 310851Z 17007KT 7SM OVC004 21/18 A2982 RMK AO2 SLP096
T02060183 53005 $





000
SAUS46 KSGX 310759
MTRSAN
SPECI KSAN 310758Z 17006KT 9SM OVC006 21/19 A2981 RMK AO2 $





000
SAUS46 KSGX 310753
MTRCZZ
METAR KCZZ 310752Z AUTO 02003KT 16/04 A2988 RMK AO1 SLP079 T01610039
403670128





000
SAUS46 KSGX 310752
MTRSAN
METAR KSAN 310751Z 18006KT 9SM BKN008 21/19 A2981 RMK AO2 SLP095
T02110189 402610200 $





000
SAUS46 KSGX 310727
MTRSAN
SPECI KSAN 310725Z 17007KT 9SM BKN008 22/19 A2980 RMK AO2 $





000
SAUS46 KSGX 310718
MTRSAN
SPECI KSAN 310717Z 18005KT 9SM SCT008 22/19 A2981 RMK AO2 $





000
SAUS46 KSGX 310653
MTRCZZ
METAR KCZZ 310652Z AUTO 05006KT 17/04 A2988 RMK AO1 SLP079 T01720044





000
SAUS46 KSGX 310652
MTRSAN
METAR KSAN 310651Z 20005KT 9SM FEW014 21/19 A2981 RMK AO2 SLP093
T02110189 $





000
SAUS46 KSGX 310553
MTRCZZ
METAR KCZZ 310552Z AUTO 03004KT 19/04 A2988 RMK AO1 SLP079 T01890044
10350 20183 51011





000
SAUS46 KSGX 310552
MTRSAN
METAR KSAN 310551Z 19003KT 10SM FEW014 22/19 A2980 RMK AO2 SLP091
T02220189 10256 20222 51007 $





000
SAUS46 KSGX 310453
MTRCZZ
METAR KCZZ 310452Z AUTO 05003KT 21/06 A2987 RMK AO1 SLP075 T02060056





000
SAUS46 KSGX 310452
MTRSAN
METAR KSAN 310451Z 00000KT 10SM FEW014 22/19 A2980 RMK AO2 SLP090
T02220189 $





000
SAUS46 KSGX 310353
MTRCZZ
METAR KCZZ 310352Z AUTO 03003KT 22/03 A2986 RMK AO1 SLP073 T02220033





000
SAUS46 KSGX 310352
MTRSAN
METAR KSAN 310351Z 28004KT 10SM FEW014 22/19 A2979 RMK AO2 SLP088
T02220189 $





000
SAUS46 KSGX 310253
MTRCZZ
METAR KCZZ 310252Z AUTO 00000KT 28/09 A2984 RMK AO1 SLP069 T02780094
53006





000
SAUS46 KSGX 310252
MTRSAN
METAR KSAN 310251Z 29005KT 10SM FEW014 23/18 A2978 RMK AO2 SLP084
T02280183 53002 $





000
SAUS46 KSGX 310153
MTRCZZ
METAR KCZZ 310152Z AUTO 22008KT 30/09 A2983 RMK AO1 SLP069 T03000089





000
SAUS46 KSGX 310152
MTRSAN
METAR KSAN 310151Z 30006KT 10SM FEW013 23/18 A2977 RMK AO2 SLP080
T02330183 $





000
SAUS46 KSGX 310053
MTRCZZ
METAR KCZZ 310052Z AUTO 22008KT 33/06 A2983 RMK AO1 SLP065 T03330056





000
SAUS46 KSGX 310052
MTRSAN
METAR KSAN 310051Z 32007KT 10SM FEW013 25/18 A2977 RMK AO2 SLP079
T02500178 $





000
SAUS46 KSGX 302353
MTRCZZ
METAR KCZZ 302352Z AUTO 22016KT 34/06 A2982 RMK AO1 SLP063 T03440056
10367 20333 56010





000
SAUS46 KSGX 302352
MTRSAN
METAR KSAN 302351Z 31007KT 10SM FEW013 26/18 A2977 RMK AO2 SLP082
T02560178 10261 20228 56013 $





000
SAUS46 KSGX 302253
MTRCZZ
METAR KCZZ 302252Z AUTO 22015KT 35/02 A2983 RMK AO1 SLP064 T03500017





000
SAUS46 KSGX 302252
MTRSAN
METAR KSAN 302251Z 29007KT 10SM FEW013 26/17 A2978 RMK AO2 SLP084
T02610172 $





000
SAUS46 KSGX 302153
MTRCZZ
METAR KCZZ 302152Z AUTO 21016KT 36/05 A2983 RMK AO1 SLP065 T03560050





000
SAUS46 KSGX 302152
MTRSAN
METAR KSAN 302151Z 31008KT 10SM FEW013 25/18 A2979 RMK AO2 SLP089
T02500178 $





000
SAUS46 KSGX 302053
MTRCZZ
METAR KCZZ 302052Z AUTO 24008G19KT 36/02 A2986 RMK AO1 SLP072
T03560017 58010





000
SAUS46 KSGX 302052
MTRSAN
METAR KSAN 302051Z 29007KT 10SM FEW013 26/17 A2981 RMK AO2 SLP095
T02560172 58012 $





000
SAUS46 KSGX 301953
MTRCZZ
METAR KCZZ 301952Z AUTO 24010G16KT 36/02 A2987 RMK AO1 SLP075
T03610017





000
SAUS46 KSGX 301953
MTRSAN
METAR KSAN 301951Z 30007KT 10SM FEW013 26/17 A2983 RMK AO2 SLP099
T02560172 $





000
SAUS46 KSGX 301853
MTRCZZ
METAR KCZZ 301852Z AUTO 23007KT 35/02 A2988 RMK AO1 SLP079 T03500022





000
SAUS46 KSGX 301852
MTRSAN
METAR KSAN 301851Z VRB06KT 10SM FEW013 24/17 A2984 RMK AO2 SLP103
T02390172 $





000
SAUS46 KSGX 301753
MTRCZZ
METAR KCZZ 301752Z AUTO 24008KT 33/01 A2989 RMK AO1 SLP082 T03330006
10339 20128 56003





000
SAUS46 KSGX 301752
MTRSAN
METAR KSAN 301751Z 20004KT 9SM FEW013 23/17 A2985 RMK AO2 SLP106
T02330172 10233 20200 58001 $





000
SAUS46 KSGX 301659
MTRSAN
SPECI KSAN 301658Z VRB04KT 8SM SCT013 22/17 A2985 RMK AO2 $





000
SAUS46 KSGX 301653
MTRCZZ
METAR KCZZ 301652Z AUTO 25007KT 32/01 A2989 RMK AO1 SLP084 T03170011





000
SAUS46 KSGX 301652
MTRSAN
METAR KSAN 301651Z 27003KT 8SM BKN013 22/17 A2985 RMK AO2 SLP108
T02220172 $





000
SAUS46 KSGX 301553
MTRCZZ
METAR KCZZ 301552Z AUTO 00000KT 29/05 A2989 RMK AO1 SLP084 T02890050





000
SAUS46 KSGX 301552
MTRSAN
METAR KSAN 301551Z 27004KT 8SM BKN011 21/17 A2985 RMK AO2 SLP109
T02110172 $





000
SAUS46 KSGX 301453
MTRCZZ
METAR KCZZ 301452Z AUTO 06005KT 22/06 A2990 RMK AO1 SLP090 T02170056
51006





000
SAUS46 KSGX 301452
MTRSAN
METAR KSAN 301451Z 18003KT 7SM BKN011 21/17 A2985 RMK AO2 SLP107
T02060172 53007 $





000
SAUS46 KSGX 301353
MTRCZZ
METAR KCZZ 301352Z AUTO 05007KT 14/05 A2990 RMK AO1 SLP092 T01440050





000
SAUS46 KSGX 301352
MTRSAN
METAR KSAN 301351Z 00000KT 8SM BKN011 21/17 A2984 RMK AO2 SLP105
T02060172 $





000
SAUS46 KSGX 301253
MTRCZZ
METAR KCZZ 301252Z AUTO 06005KT 15/06 A2988 RMK AO1 SLP085 T01500056





000
SAUS46 KSGX 301253
MTRSAN
METAR KSAN 301251Z 00000KT 9SM OVC011 21/17 A2983 RMK AO2 SLP101
T02060172 $





000
SAUS46 KSGX 301153
MTRCZZ
METAR KCZZ 301152Z AUTO 05004KT 14/06 A2988 RMK AO1 SLP082 T01390061
10189 20128 56004





000
SAUS46 KSGX 301152
MTRSAN
METAR KSAN 301151Z 00000KT 9SM OVC011 21/17 A2983 RMK AO2 SLP100
T02060172 10211 20200 55001 $





000
SAUS46 KSGX 301053
MTRCZZ
METAR KCZZ 301052Z AUTO 04005KT 15/07 A2988 RMK AO1 SLP081 T01500067





000
SAUS46 KSGX 301052
MTRSAN
METAR KSAN 301051Z 00000KT 10SM BKN011 20/17 A2983 RMK AO2 SLP100
T02000172 $





000
SAUS46 KSGX 301039
MTRSAN
SPECI KSAN 301038Z 31003KT 10SM BKN011 20/17 A2983 RMK AO2 $





000
SAUS46 KSGX 300953
MTRCZZ
METAR KCZZ 300952Z AUTO 04006KT 15/07 A2989 RMK AO1 SLP083 T01500072





000
SAUS46 KSGX 300952
MTRSAN
METAR KSAN 300951Z 30003KT 10SM SCT011 20/17 A2982 RMK AO2 SLP099
T02000172 $





000
SAUS46 KSGX 300928
MTRSAN
SPECI KSAN 300927Z 00000KT 10SM SCT011 21/17 A2983 RMK AO2 $





000
SAUS46 KSGX 300907
MTRSAN
SPECI KSAN 300906Z 00000KT 10SM BKN011 21/17 A2983 RMK AO2 $





000
SAUS46 KSGX 300853
MTRCZZ
METAR KCZZ 300852Z AUTO 04005KT 16/08 A2989 RMK AO1 SLP085 T01560078
58004





000
SAUS46 KSGX 300852
MTRSAN
METAR KSAN 300851Z 00000KT 10SM SCT011 21/17 A2983 RMK AO2 SLP102
T02060172 58009 $





000
SAUS46 KSGX 300759
MTRSAN
SPECI KSAN 300758Z 00000KT 10SM SCT011 21/17 A2985 RMK AO2 $





000
SAUS46 KSGX 300753
MTRCZZ
METAR KCZZ 300752Z AUTO 05005KT 17/08 A2990 RMK AO1 SLP087 T01670083
403610128





000
SAUS46 KSGX 300752
MTRSAN
METAR KSAN 300751Z 05003KT 10SM BKN011 21/17 A2985 RMK AO2 SLP106
T02110172 402610211 $





000
SAUS46 KSGX 300653
MTRCZZ
METAR KCZZ 300652Z AUTO 04006KT 17/09 A2990 RMK AO1 SLP088 T01670089





000
SAUS46 KSGX 300652
MTRSAN
METAR KSAN 300651Z 29004KT 10SM BKN011 21/17 A2985 RMK AO2 SLP107
T02110172 $





000
SAUS46 KSGX 300553
MTRCZZ
METAR KCZZ 300552Z AUTO 03003KT 19/09 A2991 RMK AO1 SLP090 T01890094
10344 20183 50006





000
SAUS46 KSGX 300552
MTRSAN
METAR KSAN 300551Z 28004KT 10SM BKN011 21/18 A2986 RMK AO2 SLP111
T02110178 10244 20211 51006 $





000
SAUS46 KSGX 300510
MTRSAN
SPECI KSAN 300509Z 28005KT 10SM BKN011 22/18 A2986 RMK AO2 $





000
SAUS46 KSGX 300453
MTRCZZ
METAR KCZZ 300452Z AUTO 03004KT 19/10 A2991 RMK AO1 SLP092 T01940100





000
SAUS46 KSGX 300452
MTRSAN
METAR KSAN 300451Z 29005KT 10SM SCT011 22/18 A2985 RMK AO2 SLP109
T02170178 $





    US Dept of Commerce
    National Oceanic and Atmospheric Administration
    National Weather Service
    1325 East West Highway
    Silver Spring, MD 20910
    Page Author: NWS Internet Services Team
Disclaimer
Information Quality
Credits
Glossary
Privacy Policy
Freedom of Information Act (FOIA)
About Us
Career Opportunities